sensor_id;sensor_type;location;lat;lon;timestamp;pressure;altitude;pressure_sealevel;temperature;humidity
8286;BME280;4181;43.416;24.598;2023-01-06T00:00:18;100168.31;;;13.42;100.00
8286;BME280;4181;43.416;24.598;2023-01-06T00:02:44;100159.00;;;13.43;100.00
8286;BME280;4181;43.416;24.598;2023-01-06T00:05:11;100152.41;;;13.39;100.00
8286;BME280;4181;43.416;24.598;2023-01-06T00:07:37;100164.19;;;13.40;100.00
8286;BME280;4181;43.416;24.598;2023-01-06T00:10:05;100187.47;;;13.42;100.00
8286;BME280;4181;43.416;24.598;2023-01-06T00:12:30;100187.22;;;13.44;100.00
8286;BME280;4181;43.416;24.598;2023-01-06T00:14:56;100178.97;;;13.39;100.00
8286;BME280;4181;43.416;24.598;2023-01-06T00:17:22;100200.91;;;13.39;100.00
8286;BME280;4181;43.416;24.598;2023-01-06T00:19:48;100196.78;;;13.36;100.00
8286;BME280;4181;43.416;24.598;2023-01-06T00:22:13;100188.28;;;13.38;100.00
8286;BME280;4181;43.416;24.598;2023-01-06T00:24:39;100206.13;;;13.45;100.00
8286;BME280;4181;43.416;24.598;2023-01-06T00:27:04;100202.56;;;13.40;100.00
8286;BME280;4181;43.416;24.598;2023-01-06T00:29:30;100223.91;;;13.33;100.00
8286;BME280;4181;43.416;24.598;2023-01-06T00:31:58;100224.75;;;13.33;100.00
8286;BME280;4181;43.416;24.598;2023-01-06T00:34:24;100225.50;;;13.24;100.00
8286;BME280;4181;43.416;24.598;2023-01-06T00:36:49;100226.88;;;13.26;100.00
8286;BME280;4181;43.416;24.598;2023-01-06T00:39:15;100226.28;;;13.14;100.00
8286;BME280;4181;43.416;24.598;2023-01-06T00:41:40;100230.13;;;13.18;100.00
8286;BME280;4181;43.416;24.598;2023-01-06T00:44:24;100235.81;;;13.07;100.00
8286;BME280;4181;43.416;24.598;2023-01-06T00:46:50;100223.53;;;13.14;100.00
8286;BME280;4181;43.416;24.598;2023-01-06T00:49:16;100237.22;;;13.14;100.00
8286;BME280;4181;43.416;24.598;2023-01-06T00:51:42;100241.03;;;13.08;100.00
8286;BME280;4181;43.416;24.598;2023-01-06T00:54:10;100247.59;;;13.07;100.00
8286;BME280;4181;43.416;24.598;2023-01-06T00:56:40;100239.97;;;13.14;100.00
8286;BME280;4181;43.416;24.598;2023-01-06T00:59:08;100248.66;;;13.01;100.00
8286;BME280;4181;43.416;24.598;2023-01-06T01:01:34;100253.63;;;13.09;100.00
8286;BME280;4181;43.416;24.598;2023-01-06T01:04:01;100246.22;;;13.05;100.00
8286;BME280;4181;43.416;24.598;2023-01-06T01:06:26;100252.16;;;12.97;100.00
8286;BME280;4181;43.416;24.598;2023-01-06T01:08:56;100264.16;;;12.91;100.00
8286;BME280;4181;43.416;24.598;2023-01-06T01:11:23;100274.00;;;12.87;100.00
8286;BME280;4181;43.416;24.598;2023-01-06T01:14:08;100267.97;;;12.85;100.00
8286;BME280;4181;43.416;24.598;2023-01-06T01:16:34;100281.66;;;12.85;100.00
8286;BME280;4181;43.416;24.598;2023-01-06T01:18:59;100278.13;;;12.89;100.00
8286;BME280;4181;43.416;24.598;2023-01-06T01:21:26;100286.22;;;12.74;100.00
8286;BME280;4181;43.416;24.598;2023-01-06T01:23:52;100296.72;;;12.87;100.00
8286;BME280;4181;43.416;24.598;2023-01-06T01:26:17;100291.78;;;12.84;100.00
8286;BME280;4181;43.416;24.598;2023-01-06T01:28:43;100289.81;;;12.80;100.00
8286;BME280;4181;43.416;24.598;2023-01-06T01:31:09;100288.16;;;12.78;100.00
8286;BME280;4181;43.416;24.598;2023-01-06T01:33:34;100289.56;;;12.81;100.00
8286;BME280;4181;43.416;24.598;2023-01-06T01:36:08;100294.47;;;12.79;100.00
8286;BME280;4181;43.416;24.598;2023-01-06T01:38:34;100306.81;;;12.82;100.00
8286;BME280;4181;43.416;24.598;2023-01-06T01:41:00;100302.06;;;12.72;100.00
8286;BME280;4181;43.416;24.598;2023-01-06T01:43:45;100305.38;;;12.74;100.00
8286;BME280;4181;43.416;24.598;2023-01-06T01:46:11;100298.69;;;12.60;100.00
8286;BME280;4181;43.416;24.598;2023-01-06T01:48:38;100295.97;;;12.60;100.00
8286;BME280;4181;43.416;24.598;2023-01-06T01:51:06;100296.50;;;12.62;100.00
8286;BME280;4181;43.416;24.598;2023-01-06T01:53:38;100302.81;;;12.62;100.00
8286;BME280;4181;43.416;24.598;2023-01-06T01:56:07;100298.66;;;12.55;100.00
8286;BME280;4181;43.416;24.598;2023-01-06T01:58:40;100300.72;;;12.43;100.00
8286;BME280;4181;43.416;24.598;2023-01-06T02:01:08;100306.19;;;12.43;100.00
8286;BME280;4181;43.416;24.598;2023-01-06T02:03:34;100309.50;;;12.45;100.00
8286;BME280;4181;43.416;24.598;2023-01-06T02:06:05;100316.31;;;12.42;100.00
8286;BME280;4181;43.416;24.598;2023-01-06T02:08:41;100321.72;;;12.37;100.00
8286;BME280;4181;43.416;24.598;2023-01-06T02:11:07;100328.00;;;12.33;100.00
8286;BME280;4181;43.416;24.598;2023-01-06T02:13:35;100326.41;;;12.42;100.00
8286;BME280;4181;43.416;24.598;2023-01-06T02:16:15;100332.63;;;12.32;100.00
8286;BME280;4181;43.416;24.598;2023-01-06T02:19:00;100337.25;;;12.32;100.00
8286;BME280;4181;43.416;24.598;2023-01-06T02:34:33;100330.00;;;12.16;100.00
8286;BME280;4181;43.416;24.598;2023-01-06T02:43:20;100330.38;;;12.03;100.00
8286;BME280;4181;43.416;24.598;2023-01-06T02:46:01;100330.34;;;11.98;100.00
8286;BME280;4181;43.416;24.598;2023-01-06T02:51:33;100323.53;;;11.79;100.00
8286;BME280;4181;43.416;24.598;2023-01-06T02:56:33;100321.31;;;11.76;100.00
8286;BME280;4181;43.416;24.598;2023-01-06T02:59:04;100327.22;;;11.68;100.00
8286;BME280;4181;43.416;24.598;2023-01-06T03:01:40;100317.13;;;11.68;100.00
8286;BME280;4181;43.416;24.598;2023-01-06T03:04:10;100316.81;;;11.65;100.00
8286;BME280;4181;43.416;24.598;2023-01-06T03:06:40;100310.25;;;11.66;100.00
8286;BME280;4181;43.416;24.598;2023-01-06T03:09:12;100303.19;;;11.70;100.00
8286;BME280;4181;43.416;24.598;2023-01-06T03:11:40;100298.28;;;11.72;100.00
8286;BME280;4181;43.416;24.598;2023-01-06T03:14:12;100303.75;;;11.72;100.00
8286;BME280;4181;43.416;24.598;2023-01-06T03:16:39;100299.31;;;11.66;100.00
8286;BME280;4181;43.416;24.598;2023-01-06T03:19:05;100299.78;;;11.63;100.00
8286;BME280;4181;43.416;24.598;2023-01-06T03:21:34;100302.94;;;11.71;100.00
8286;BME280;4181;43.416;24.598;2023-01-06T03:24:00;100308.59;;;11.65;100.00
8286;BME280;4181;43.416;24.598;2023-01-06T03:26:28;100305.50;;;11.61;100.00
8286;BME280;4181;43.416;24.598;2023-01-06T03:28:55;100306.41;;;11.67;100.00
8286;BME280;4181;43.416;24.598;2023-01-06T03:39:57;100310.72;;;11.63;100.00
8286;BME280;4181;43.416;24.598;2023-01-06T03:42:44;100306.31;;;11.62;100.00
8286;BME280;4181;43.416;24.598;2023-01-06T03:56:50;100302.38;;;11.52;100.00
8286;BME280;4181;43.416;24.598;2023-01-06T03:59:21;100296.34;;;11.50;100.00
8286;BME280;4181;43.416;24.598;2023-01-06T04:01:48;100313.84;;;11.49;100.00
8286;BME280;4181;43.416;24.598;2023-01-06T04:04:15;100317.94;;;11.52;100.00
8286;BME280;4181;43.416;24.598;2023-01-06T04:06:41;100330.28;;;11.55;100.00
8286;BME280;4181;43.416;24.598;2023-01-06T04:09:07;100328.56;;;11.48;100.00
8286;BME280;4181;43.416;24.598;2023-01-06T04:11:33;100326.25;;;11.40;100.00
8286;BME280;4181;43.416;24.598;2023-01-06T04:14:17;100331.47;;;11.42;100.00
8286;BME280;4181;43.416;24.598;2023-01-06T04:16:42;100331.22;;;11.43;100.00
8286;BME280;4181;43.416;24.598;2023-01-06T04:19:08;100342.84;;;11.34;100.00
8286;BME280;4181;43.416;24.598;2023-01-06T04:21:33;100343.16;;;11.37;100.00
8286;BME280;4181;43.416;24.598;2023-01-06T04:23:58;100355.47;;;11.40;100.00
8286;BME280;4181;43.416;24.598;2023-01-06T04:26:24;100367.69;;;11.32;100.00
8286;BME280;4181;43.416;24.598;2023-01-06T04:28:49;100365.78;;;11.33;100.00
8286;BME280;4181;43.416;24.598;2023-01-06T04:31:15;100376.63;;;11.28;100.00
8286;BME280;4181;43.416;24.598;2023-01-06T04:33:40;100368.44;;;11.28;100.00
8286;BME280;4181;43.416;24.598;2023-01-06T04:36:06;100379.91;;;11.30;100.00
8286;BME280;4181;43.416;24.598;2023-01-06T04:38:33;100365.38;;;11.24;100.00
8286;BME280;4181;43.416;24.598;2023-01-06T04:40:58;100373.91;;;11.28;100.00
8286;BME280;4181;43.416;24.598;2023-01-06T04:43:24;100369.16;;;11.23;100.00
8286;BME280;4181;43.416;24.598;2023-01-06T04:45:49;100384.00;;;11.27;100.00
8286;BME280;4181;43.416;24.598;2023-01-06T04:48:16;100382.25;;;11.21;100.00
8286;BME280;4181;43.416;24.598;2023-01-06T04:50:42;100386.56;;;11.17;100.00
8286;BME280;4181;43.416;24.598;2023-01-06T04:53:10;100388.97;;;11.14;100.00
8286;BME280;4181;43.416;24.598;2023-01-06T04:55:40;100373.16;;;11.16;100.00
8286;BME280;4181;43.416;24.598;2023-01-06T04:58:06;100373.75;;;11.18;100.00
8286;BME280;4181;43.416;24.598;2023-01-06T05:00:32;100374.72;;;11.12;100.00
8286;BME280;4181;43.416;24.598;2023-01-06T05:02:59;100381.03;;;11.12;100.00
8286;BME280;4181;43.416;24.598;2023-01-06T05:05:25;100379.53;;;11.21;100.00
8286;BME280;4181;43.416;24.598;2023-01-06T05:07:54;100389.13;;;11.24;100.00
8286;BME280;4181;43.416;24.598;2023-01-06T05:10:19;100391.94;;;11.29;100.00
8286;BME280;4181;43.416;24.598;2023-01-06T05:12:45;100400.97;;;11.29;100.00
8286;BME280;4181;43.416;24.598;2023-01-06T05:15:10;100393.75;;;11.23;100.00
8286;BME280;4181;43.416;24.598;2023-01-06T05:17:36;100395.41;;;11.24;100.00
8286;BME280;4181;43.416;24.598;2023-01-06T05:20:02;100396.47;;;11.23;100.00
8286;BME280;4181;43.416;24.598;2023-01-06T05:22:28;100398.22;;;11.29;100.00
8286;BME280;4181;43.416;24.598;2023-01-06T05:24:53;100415.69;;;11.28;100.00
8286;BME280;4181;43.416;24.598;2023-01-06T05:27:19;100393.19;;;11.21;100.00
8286;BME280;4181;43.416;24.598;2023-01-06T05:29:45;100402.34;;;11.32;100.00
8286;BME280;4181;43.416;24.598;2023-01-06T05:32:10;100412.78;;;11.35;100.00
8286;BME280;4181;43.416;24.598;2023-01-06T05:34:36;100433.91;;;11.39;100.00
8286;BME280;4181;43.416;24.598;2023-01-06T05:37:03;100427.00;;;11.37;100.00
8286;BME280;4181;43.416;24.598;2023-01-06T05:39:28;100426.59;;;11.28;100.00
8286;BME280;4181;43.416;24.598;2023-01-06T05:41:54;100431.59;;;11.31;100.00
8286;BME280;4181;43.416;24.598;2023-01-06T05:44:19;100433.22;;;11.32;100.00
8286;BME280;4181;43.416;24.598;2023-01-06T05:46:45;100440.19;;;11.23;100.00
8286;BME280;4181;43.416;24.598;2023-01-06T05:49:10;100446.56;;;11.29;100.00
8286;BME280;4181;43.416;24.598;2023-01-06T05:51:36;100442.44;;;11.26;100.00
8286;BME280;4181;43.416;24.598;2023-01-06T05:54:01;100445.34;;;11.36;100.00
8286;BME280;4181;43.416;24.598;2023-01-06T05:56:26;100446.88;;;11.32;100.00
8286;BME280;4181;43.416;24.598;2023-01-06T05:58:52;100448.53;;;11.33;100.00
8286;BME280;4181;43.416;24.598;2023-01-06T06:01:23;100451.94;;;11.40;100.00
8286;BME280;4181;43.416;24.598;2023-01-06T06:03:49;100463.03;;;11.34;100.00
8286;BME280;4181;43.416;24.598;2023-01-06T06:06:16;100469.84;;;11.31;100.00
8286;BME280;4181;43.416;24.598;2023-01-06T06:08:42;100468.16;;;11.47;100.00
8286;BME280;4181;43.416;24.598;2023-01-06T06:11:10;100459.47;;;11.67;100.00
8286;BME280;4181;43.416;24.598;2023-01-06T06:13:36;100472.97;;;11.90;100.00
8286;BME280;4181;43.416;24.598;2023-01-06T06:16:10;100463.69;;;12.12;100.00
8286;BME280;4181;43.416;24.598;2023-01-06T06:18:37;100458.75;;;12.31;100.00
8286;BME280;4181;43.416;24.598;2023-01-06T06:21:16;100455.66;;;12.49;100.00
8286;BME280;4181;43.416;24.598;2023-01-06T06:23:42;100461.31;;;12.64;100.00
8286;BME280;4181;43.416;24.598;2023-01-06T06:26:09;100433.63;;;12.87;100.00
8286;BME280;4181;43.416;24.598;2023-01-06T06:28:35;100456.44;;;12.93;100.00
8286;BME280;4181;43.416;24.598;2023-01-06T06:33:30;100463.59;;;13.25;100.00
8286;BME280;4181;43.416;24.598;2023-01-06T06:35:59;100469.22;;;13.40;100.00
8286;BME280;4181;43.416;24.598;2023-01-06T06:38:25;100468.03;;;13.63;100.00
8286;BME280;4181;43.416;24.598;2023-01-06T06:40:51;100471.28;;;13.96;100.00
8286;BME280;4181;43.416;24.598;2023-01-06T06:43:17;100468.06;;;14.10;100.00
8286;BME280;4181;43.416;24.598;2023-01-06T06:45:46;100479.38;;;14.18;100.00
8286;BME280;4181;43.416;24.598;2023-01-06T06:48:12;100474.00;;;14.38;100.00
8286;BME280;4181;43.416;24.598;2023-01-06T06:50:38;100483.63;;;14.41;100.00
8286;BME280;4181;43.416;24.598;2023-01-06T06:53:03;100491.84;;;14.41;100.00
8286;BME280;4181;43.416;24.598;2023-01-06T06:55:29;100486.47;;;14.66;100.00
8286;BME280;4181;43.416;24.598;2023-01-06T06:57:57;100482.09;;;14.75;100.00
8286;BME280;4181;43.416;24.598;2023-01-06T07:00:23;100481.63;;;15.03;100.00
8286;BME280;4181;43.416;24.598;2023-01-06T07:02:49;100483.84;;;15.21;100.00
8286;BME280;4181;43.416;24.598;2023-01-06T07:05:15;100477.81;;;15.34;100.00
8286;BME280;4181;43.416;24.598;2023-01-06T07:07:42;100481.66;;;15.33;100.00
8286;BME280;4181;43.416;24.598;2023-01-06T07:10:14;100481.66;;;15.33;100.00
8286;BME280;4181;43.416;24.598;2023-01-06T07:12:40;100489.41;;;15.46;100.00
8286;BME280;4181;43.416;24.598;2023-01-06T07:15:06;100479.22;;;15.72;100.00
8286;BME280;4181;43.416;24.598;2023-01-06T07:17:31;100480.56;;;15.89;100.00
8286;BME280;4181;43.416;24.598;2023-01-06T07:19:57;100484.97;;;15.90;100.00
8286;BME280;4181;43.416;24.598;2023-01-06T07:22:22;100485.47;;;16.02;100.00
8286;BME280;4181;43.416;24.598;2023-01-06T07:24:48;100484.66;;;16.12;100.00
8286;BME280;4181;43.416;24.598;2023-01-06T07:27:13;100485.44;;;16.22;100.00
8286;BME280;4181;43.416;24.598;2023-01-06T07:29:38;100490.66;;;16.24;100.00
8286;BME280;4181;43.416;24.598;2023-01-06T07:32:04;100495.31;;;16.38;100.00
8286;BME280;4181;43.416;24.598;2023-01-06T07:34:30;100493.06;;;16.61;100.00
8286;BME280;4181;43.416;24.598;2023-01-06T07:36:55;100501.84;;;16.63;100.00
8286;BME280;4181;43.416;24.598;2023-01-06T07:39:21;100503.16;;;16.80;100.00
8286;BME280;4181;43.416;24.598;2023-01-06T07:41:46;100513.84;;;16.92;100.00
8286;BME280;4181;43.416;24.598;2023-01-06T07:44:12;100510.03;;;16.83;100.00
8286;BME280;4181;43.416;24.598;2023-01-06T07:46:37;100506.03;;;17.09;100.00
8286;BME280;4181;43.416;24.598;2023-01-06T07:49:03;100508.72;;;17.24;100.00
8286;BME280;4181;43.416;24.598;2023-01-06T07:51:29;100521.19;;;17.11;100.00
8286;BME280;4181;43.416;24.598;2023-01-06T07:53:55;100518.13;;;17.13;100.00
8286;BME280;4181;43.416;24.598;2023-01-06T07:56:20;100511.88;;;17.46;100.00
8286;BME280;4181;43.416;24.598;2023-01-06T07:58:48;100514.59;;;17.51;100.00
8286;BME280;4181;43.416;24.598;2023-01-06T08:01:13;100506.44;;;17.69;100.00
8286;BME280;4181;43.416;24.598;2023-01-06T08:03:38;100505.28;;;17.76;100.00
8286;BME280;4181;43.416;24.598;2023-01-06T08:06:09;100525.38;;;17.81;100.00
8286;BME280;4181;43.416;24.598;2023-01-06T08:08:36;100522.69;;;17.71;100.00
8286;BME280;4181;43.416;24.598;2023-01-06T08:11:02;100525.91;;;17.83;100.00
8286;BME280;4181;43.416;24.598;2023-01-06T08:13:27;100520.75;;;18.05;100.00
8286;BME280;4181;43.416;24.598;2023-01-06T08:15:53;100527.31;;;18.09;100.00
8286;BME280;4181;43.416;24.598;2023-01-06T08:18:18;100530.72;;;18.01;100.00
8286;BME280;4181;43.416;24.598;2023-01-06T08:20:44;100538.38;;;18.09;100.00
8286;BME280;4181;43.416;24.598;2023-01-06T08:23:09;100541.63;;;18.16;100.00
8286;BME280;4181;43.416;24.598;2023-01-06T08:25:35;100544.47;;;18.35;100.00
8286;BME280;4181;43.416;24.598;2023-01-06T08:28:00;100555.50;;;18.35;100.00
8286;BME280;4181;43.416;24.598;2023-01-06T08:30:26;100550.81;;;18.40;100.00
8286;BME280;4181;43.416;24.598;2023-01-06T08:32:55;100554.91;;;18.66;100.00
8286;BME280;4181;43.416;24.598;2023-01-06T08:35:21;100552.31;;;18.75;100.00
8286;BME280;4181;43.416;24.598;2023-01-06T08:37:46;100564.16;;;18.80;100.00
8286;BME280;4181;43.416;24.598;2023-01-06T08:40:12;100563.03;;;18.81;100.00
8286;BME280;4181;43.416;24.598;2023-01-06T08:42:37;100559.25;;;18.96;100.00
8286;BME280;4181;43.416;24.598;2023-01-06T08:45:03;100553.97;;;19.18;100.00
8286;BME280;4181;43.416;24.598;2023-01-06T08:47:29;100561.00;;;19.11;100.00
8286;BME280;4181;43.416;24.598;2023-01-06T08:49:54;100559.25;;;18.96;100.00
8286;BME280;4181;43.416;24.598;2023-01-06T08:52:19;100568.97;;;18.93;100.00
8286;BME280;4181;43.416;24.598;2023-01-06T08:54:45;100565.72;;;19.10;100.00
8286;BME280;4181;43.416;24.598;2023-01-06T08:57:10;100563.25;;;19.09;100.00
8286;BME280;4181;43.416;24.598;2023-01-06T08:59:36;100561.59;;;19.08;100.00
8286;BME280;4181;43.416;24.598;2023-01-06T09:02:01;100554.72;;;19.24;100.00
8286;BME280;4181;43.416;24.598;2023-01-06T09:04:27;100551.94;;;19.47;100.00
8286;BME280;4181;43.416;24.598;2023-01-06T09:06:52;100540.81;;;19.29;100.00
8286;BME280;4181;43.416;24.598;2023-01-06T09:09:18;100549.09;;;19.34;100.00
8286;BME280;4181;43.416;24.598;2023-01-06T09:11:45;100537.63;;;19.40;100.00
8286;BME280;4181;43.416;24.598;2023-01-06T09:14:11;100538.81;;;19.53;100.00
8286;BME280;4181;43.416;24.598;2023-01-06T09:16:38;100536.72;;;19.63;100.00
8286;BME280;4181;43.416;24.598;2023-01-06T09:19:04;100517.41;;;19.77;100.00
8286;BME280;4181;43.416;24.598;2023-01-06T09:21:30;100518.09;;;19.69;100.00
8286;BME280;4181;43.416;24.598;2023-01-06T09:23:57;100522.63;;;19.78;100.00
8286;BME280;4181;43.416;24.598;2023-01-06T09:26:23;100520.25;;;19.72;100.00
8286;BME280;4181;43.416;24.598;2023-01-06T09:28:49;100512.84;;;19.67;100.00
8286;BME280;4181;43.416;24.598;2023-01-06T09:31:14;100521.97;;;19.68;100.00
8286;BME280;4181;43.416;24.598;2023-01-06T09:33:39;100513.06;;;19.71;100.00
8286;BME280;4181;43.416;24.598;2023-01-06T09:36:05;100513.56;;;19.73;100.00
8286;BME280;4181;43.416;24.598;2023-01-06T09:38:31;100499.31;;;19.66;100.00
8286;BME280;4181;43.416;24.598;2023-01-06T09:46:33;100500.47;;;19.78;100.00
8286;BME280;4181;43.416;24.598;2023-01-06T09:51:48;100489.97;;;19.94;100.00
8286;BME280;4181;43.416;24.598;2023-01-06T09:54:19;100488.28;;;20.25;100.00
8286;BME280;4181;43.416;24.598;2023-01-06T09:56:49;100493.13;;;20.33;100.00
8286;BME280;4181;43.416;24.598;2023-01-06T09:59:29;100491.81;;;20.44;100.00
8286;BME280;4181;43.416;24.598;2023-01-06T10:01:57;100489.03;;;20.44;100.00
8286;BME280;4181;43.416;24.598;2023-01-06T10:04:26;100488.22;;;20.57;100.00
8286;BME280;4181;43.416;24.598;2023-01-06T10:10:04;100486.06;;;20.54;100.00
8286;BME280;4181;43.416;24.598;2023-01-06T10:21:25;100459.97;;;20.42;100.00
8286;BME280;4181;43.416;24.598;2023-01-06T10:26:49;100460.28;;;20.40;100.00
8286;BME280;4181;43.416;24.598;2023-01-06T10:29:19;100453.31;;;20.29;100.00
8286;BME280;4181;43.416;24.598;2023-01-06T10:31:46;100462.44;;;20.16;100.00
8286;BME280;4181;43.416;24.598;2023-01-06T10:36:43;100446.84;;;20.34;100.00
8286;BME280;4181;43.416;24.598;2023-01-06T10:39:15;100437.69;;;20.47;100.00
8286;BME280;4181;43.416;24.598;2023-01-06T10:44:17;100428.72;;;20.63;100.00
8286;BME280;4181;43.416;24.598;2023-01-06T10:46:43;100434.47;;;20.80;100.00
8286;BME280;4181;43.416;24.598;2023-01-06T10:49:17;100428.47;;;21.00;100.00
8286;BME280;4181;43.416;24.598;2023-01-06T10:51:51;100430.13;;;20.88;100.00
8286;BME280;4181;43.416;24.598;2023-01-06T10:54:21;100437.78;;;20.69;100.00
8286;BME280;4181;43.416;24.598;2023-01-06T10:56:52;100449.69;;;20.69;100.00
8286;BME280;4181;43.416;24.598;2023-01-06T10:59:20;100448.44;;;20.75;100.00
8286;BME280;4181;43.416;24.598;2023-01-06T11:01:51;100440.44;;;20.74;100.00
8286;BME280;4181;43.416;24.598;2023-01-06T11:04:17;100442.69;;;20.58;100.00
8286;BME280;4181;43.416;24.598;2023-01-06T11:11:52;100444.88;;;20.34;100.00
8286;BME280;4181;43.416;24.598;2023-01-06T11:14:21;100448.00;;;20.00;100.00
8286;BME280;4181;43.416;24.598;2023-01-06T11:17:03;100459.31;;;20.04;100.00
8286;BME280;4181;43.416;24.598;2023-01-06T11:19:40;100438.56;;;20.01;100.00
8286;BME280;4181;43.416;24.598;2023-01-06T11:22:32;100449.53;;;19.93;100.00
8286;BME280;4181;43.416;24.598;2023-01-06T11:24:59;100449.66;;;20.01;100.00
8286;BME280;4181;43.416;24.598;2023-01-06T11:27:24;100451.69;;;20.09;100.00
8286;BME280;4181;43.416;24.598;2023-01-06T11:29:50;100449.53;;;19.93;100.00
8286;BME280;4181;43.416;24.598;2023-01-06T11:34:59;100451.47;;;19.79;100.00
8286;BME280;4181;43.416;24.598;2023-01-06T11:37:38;100446.72;;;19.66;100.00
8286;BME280;4181;43.416;24.598;2023-01-06T11:40:26;100442.16;;;19.56;100.00
8286;BME280;4181;43.416;24.598;2023-01-06T11:42:56;100459.78;;;19.47;100.00
8286;BME280;4181;43.416;24.598;2023-01-06T11:45:42;100464.72;;;19.13;100.00
8286;BME280;4181;43.416;24.598;2023-01-06T11:48:18;100478.72;;;18.60;100.00
8286;BME280;4181;43.416;24.598;2023-01-06T11:50:58;100492.72;;;18.45;100.00
8286;BME280;4181;43.416;24.598;2023-01-06T11:53:26;100487.78;;;18.42;100.00
8286;BME280;4181;43.416;24.598;2023-01-06T11:59:01;100513.31;;;17.72;100.00
8286;BME280;4181;43.416;24.598;2023-01-06T12:01:39;100512.78;;;17.70;100.00
8286;BME280;4181;43.416;24.598;2023-01-06T12:04:23;100511.94;;;17.69;100.00
8286;BME280;4181;43.416;24.598;2023-01-06T12:06:51;100513.44;;;17.57;100.00
8286;BME280;4181;43.416;24.598;2023-01-06T12:09:37;100511.81;;;17.51;100.00
8286;BME280;4181;43.416;24.598;2023-01-06T12:12:06;100512.44;;;17.38;100.00
8286;BME280;4181;43.416;24.598;2023-01-06T12:14:37;100507.50;;;17.35;100.00
8286;BME280;4181;43.416;24.598;2023-01-06T12:17:26;100506.22;;;17.22;100.00
8286;BME280;4181;43.416;24.598;2023-01-06T12:20:26;100512.00;;;17.21;100.00
8286;BME280;4181;43.416;24.598;2023-01-06T12:23:06;100501.53;;;17.23;100.00
8286;BME280;4181;43.416;24.598;2023-01-06T12:25:38;100515.09;;;17.14;100.00
8286;BME280;4181;43.416;24.598;2023-01-06T12:28:11;100523.16;;;17.01;100.00
8286;BME280;4181;43.416;24.598;2023-01-06T12:30:56;100540.53;;;17.01;100.00
8286;BME280;4181;43.416;24.598;2023-01-06T12:33:37;100548.00;;;16.96;100.00
8286;BME280;4181;43.416;24.598;2023-01-06T12:36:10;100552.19;;;16.83;100.00
8286;BME280;4181;43.416;24.598;2023-01-06T12:41:39;100555.25;;;16.82;100.00
8286;BME280;4181;43.416;24.598;2023-01-06T12:44:36;100545.91;;;16.73;100.00
8286;BME280;4181;43.416;24.598;2023-01-06T12:47:18;100548.66;;;16.68;100.00
8286;BME280;4181;43.416;24.598;2023-01-06T12:49:57;100540.97;;;16.65;100.00
8286;BME280;4181;43.416;24.598;2023-01-06T12:52:36;100546.22;;;16.61;100.00
8286;BME280;4181;43.416;24.598;2023-01-06T12:55:04;100544.59;;;16.55;100.00
8286;BME280;4181;43.416;24.598;2023-01-06T12:58:07;100549.56;;;16.53;100.00
8286;BME280;4181;43.416;24.598;2023-01-06T13:00:57;100551.47;;;16.58;100.00
8286;BME280;4181;43.416;24.598;2023-01-06T13:17:45;100559.72;;;16.63;100.00
8286;BME280;4181;43.416;24.598;2023-01-06T13:20:23;100560.53;;;16.68;100.00
8286;BME280;4181;43.416;24.598;2023-01-06T13:22:57;100573.47;;;16.63;100.00
8286;BME280;4181;43.416;24.598;2023-01-06T13:25:56;100582.81;;;16.77;100.00
8286;BME280;4181;43.416;24.598;2023-01-06T13:31:00;100583.63;;;16.82;100.00
8286;BME280;4181;43.416;24.598;2023-01-06T13:37:09;100597.09;;;16.89;100.00
8286;BME280;4181;43.416;24.598;2023-01-06T13:39:51;100599.88;;;16.89;100.00
8286;BME280;4181;43.416;24.598;2023-01-06T13:43:13;100597.44;;;16.77;100.00
8286;BME280;4181;43.416;24.598;2023-01-06T13:45:14;100598.28;;;16.63;100.00
8286;BME280;4181;43.416;24.598;2023-01-06T13:47:41;100601.34;;;16.51;100.00
8286;BME280;4181;43.416;24.598;2023-01-06T13:50:11;100593.63;;;16.38;100.00
8286;BME280;4181;43.416;24.598;2023-01-06T13:52:38;100594.75;;;16.32;100.00
8286;BME280;4181;43.416;24.598;2023-01-06T13:55:19;100598.31;;;16.27;100.00
8286;BME280;4181;43.416;24.598;2023-01-06T13:57:46;100594.50;;;16.13;100.00
8286;BME280;4181;43.416;24.598;2023-01-06T14:07:56;100630.84;;;16.00;100.00
8286;BME280;4181;43.416;24.598;2023-01-06T14:10:40;100641.28;;;15.93;100.00
8286;BME280;4181;43.416;24.598;2023-01-06T14:13:22;100639.09;;;15.85;100.00
8286;BME280;4181;43.416;24.598;2023-01-06T14:15:54;100648.97;;;15.81;100.00
8286;BME280;4181;43.416;24.598;2023-01-06T14:18:34;100646.50;;;15.75;100.00
8286;BME280;4181;43.416;24.598;2023-01-06T14:21:25;100641.81;;;15.70;100.00
8286;BME280;4181;43.416;24.598;2023-01-06T14:26:19;100656.63;;;15.59;100.00
8286;BME280;4181;43.416;24.598;2023-01-06T14:28:45;100670.06;;;15.51;100.00
8286;BME280;4181;43.416;24.598;2023-01-06T14:34:02;100680.72;;;15.32;100.00
8286;BME280;4181;43.416;24.598;2023-01-06T14:36:29;100684.50;;;15.21;100.00
8286;BME280;4181;43.416;24.598;2023-01-06T14:39:04;100683.63;;;15.10;100.00
8286;BME280;4181;43.416;24.598;2023-01-06T14:41:32;100702.00;;;15.00;100.00
8286;BME280;4181;43.416;24.598;2023-01-06T14:44:04;100696.75;;;14.93;100.00
8286;BME280;4181;43.416;24.598;2023-01-06T14:46:40;100701.94;;;14.90;100.00
8286;BME280;4181;43.416;24.598;2023-01-06T14:49:24;100709.03;;;14.81;100.00
8286;BME280;4181;43.416;24.598;2023-01-06T14:51:52;100722.38;;;14.67;100.00
8286;BME280;4181;43.416;24.598;2023-01-06T14:54:29;100720.94;;;14.55;100.00
8286;BME280;4181;43.416;24.598;2023-01-06T14:56:59;100712.75;;;14.60;100.00
8286;BME280;4181;43.416;24.598;2023-01-06T14:59:25;100711.56;;;14.51;100.00
8286;BME280;4181;43.416;24.598;2023-01-06T15:02:13;100718.94;;;14.45;100.00
8286;BME280;4181;43.416;24.598;2023-01-06T15:04:54;100723.78;;;14.33;100.00